Time;durP1;ratioP1;P1;durP2;ratioP2;P2;SDS_P1;SDS_P2;PMS_P1;PMS_P2;Temp;Humidity;BMP_temperature;BMP_pressure;BME280_temperature;BME280_humidity;BME280_pressure;Samples;Min_cycle;Max_cycle;Signal;HPM_P1;HPM_P2
2022/04/05 00:00:47;;;;;;;;;;;7.70;99.90;;;;;;5094955;28;19908;-43
2022/04/05 00:03:12;;;;;;;;;;;7.70;99.90;;;;;;5094877;28;19997;-45
2022/04/05 00:05:38;;;;;;;;;;;7.70;99.90;;;;;;5093990;28;19909;-43
2022/04/05 00:08:03;;;;;;;;;;;7.70;99.90;;;;;;5094746;28;19987;-44
2022/04/05 00:10:29;;;;;;;;;;;7.70;99.90;;;;;;5094612;28;19920;-43
2022/04/05 00:12:54;;;;;;;;;;;7.70;99.90;;;;;;5093531;28;19974;-43
2022/04/05 00:15:20;;;;;;;;;;;7.70;99.90;;;;;;5093950;28;19920;-43
2022/04/05 00:17:45;;;;;;;;;;;7.70;99.90;;;;;;5094417;28;20015;-43
2022/04/05 00:20:11;;;;;;;;;;;7.70;99.90;;;;;;5093481;28;19915;-43
2022/04/05 00:22:36;;;;;;;;;;;7.60;99.90;;;;;;5094418;28;20018;-42
2022/04/05 00:25:03;;;;;;;;;;;7.60;99.90;;;;;;5094363;28;19908;-44
2022/04/05 00:27:28;;;;;;;;;;;7.60;99.90;;;;;;5093424;28;19999;-43
2022/04/05 00:29:55;;;;;;;;;;;7.60;99.90;;;;;;5094173;28;20454;-43
2022/04/05 00:32:20;;;;;;;;;;;7.60;99.90;;;;;;5093687;28;19908;-43
2022/04/05 00:34:46;;;;;;;;;;;7.60;99.90;;;;;;5092287;28;20271;-45
2022/04/05 00:37:11;;;;;;;;;;;7.60;99.90;;;;;;5093990;28;19908;-44
2022/04/05 00:39:37;;;;;;;;;;;7.60;99.90;;;;;;5093224;28;19908;-43
2022/04/05 00:42:02;;;;;;;;;;;7.60;99.90;;;;;;5093921;28;19916;-43
2022/04/05 00:44:28;;;;;;;;;;;7.50;99.90;;;;;;5094089;28;19943;-43
2022/04/05 00:46:53;;;;;;;;;;;7.60;99.90;;;;;;5093145;28;19908;-44
2022/04/05 00:49:37;;;;;;;;;;;7.60;99.90;;;;;;5093639;28;19968;-43
2022/04/05 00:52:02;;;;;;;;;;;7.50;99.90;;;;;;5093382;28;20329;-43
2022/04/05 00:54:28;;;;;;;;;;;7.50;99.90;;;;;;5091257;28;19912;-44
2022/04/05 00:56:55;;;;;;;;;;;7.50;99.90;;;;;;5093308;28;19919;-47
2022/04/05 00:59:21;;;;;;;;;;;7.50;99.90;;;;;;5093693;28;20358;-43
2022/04/05 01:01:46;;;;;;;;;;;7.40;99.90;;;;;;5092905;28;19915;-45
2022/04/05 01:04:12;;;;;;;;;;;7.40;99.90;;;;;;5093427;28;19908;-44
2022/04/05 01:06:43;;;;;;;;;;;7.40;99.90;;;;;;5093085;28;19920;-42
2022/04/05 01:09:09;;;;;;;;;;;7.40;99.90;;;;;;5092483;28;19916;-43
2022/04/05 01:11:34;;;;;;;;;;;7.40;99.90;;;;;;5093428;28;19908;-43
2022/04/05 01:14:00;;;;;;;;;;;7.40;99.90;;;;;;5092950;28;19939;-43
2022/04/05 01:16:25;;;;;;;;;;;7.40;99.90;;;;;;5092629;28;20349;-43
2022/04/05 01:18:51;;;;;;;;;;;7.40;99.90;;;;;;5093296;28;19908;-43
2022/04/05 01:21:17;;;;;;;;;;;7.40;99.90;;;;;;5093260;28;20010;-43
2022/04/05 01:24:01;;;;;;;;;;;7.40;99.90;;;;;;5092611;28;20402;-43
2022/04/05 01:26:26;;;;;;;;;;;7.30;99.90;;;;;;5093347;28;19914;-42
2022/04/05 01:28:52;;;;;;;;;;;7.40;99.90;;;;;;5092381;28;19912;-43
2022/04/05 01:31:18;;;;;;;;;;;7.30;99.90;;;;;;5092983;28;19951;-43
2022/04/05 01:33:43;;;;;;;;;;;7.30;99.90;;;;;;5092823;28;19912;-43
2022/04/05 01:36:19;;;;;;;;;;;7.40;99.90;;;;;;5092036;28;19943;-42
2022/04/05 01:38:44;;;;;;;;;;;7.30;99.90;;;;;;5093127;28;19935;-42
2022/04/05 01:41:10;;;;;;;;;;;7.30;99.90;;;;;;5092337;28;19959;-43
2022/04/05 01:43:35;;;;;;;;;;;7.30;99.90;;;;;;5091965;28;19912;-43
2022/04/05 01:46:01;;;;;;;;;;;7.30;99.90;;;;;;5092771;28;19908;-43
2022/04/05 01:48:26;;;;;;;;;;;7.30;99.90;;;;;;5092913;28;19908;-43
2022/04/05 01:50:52;;;;;;;;;;;7.30;99.90;;;;;;5092054;28;20382;-44
2022/04/05 01:53:17;;;;;;;;;;;7.30;99.90;;;;;;5093156;28;19912;-43
2022/04/05 01:55:42;;;;;;;;;;;7.30;99.90;;;;;;5092796;28;20006;-43
2022/04/05 01:58:08;;;;;;;;;;;7.30;99.90;;;;;;5091944;28;20374;-43
2022/04/05 02:00:33;;;;;;;;;;;7.30;99.90;;;;;;5092316;28;20287;-45
2022/04/05 02:02:59;;;;;;;;;;;7.30;99.90;;;;;;5092496;28;19918;-43
2022/04/05 02:05:24;;;;;;;;;;;7.30;99.90;;;;;;5091986;28;20417;-43
2022/04/05 02:07:50;;;;;;;;;;;7.30;99.90;;;;;;5092749;28;20293;-43
2022/04/05 02:10:15;;;;;;;;;;;7.30;99.90;;;;;;5092471;28;19916;-43
2022/04/05 02:12:41;;;;;;;;;;;7.30;99.90;;;;;;5095599;28;19963;-42
2022/04/05 02:15:07;;;;;;;;;;;7.30;99.90;;;;;;5096615;28;19915;-42
2022/04/05 02:17:33;;;;;;;;;;;7.30;99.90;;;;;;5096953;28;19996;-43
2022/04/05 02:20:00;;;;;;;;;;;7.30;99.90;;;;;;5095664;28;19998;-43
2022/04/05 02:22:26;;;;;;;;;;;7.30;99.90;;;;;;5096812;28;19954;-43
2022/04/05 02:24:52;;;;;;;;;;;7.30;99.90;;;;;;5096768;28;19943;-44
2022/04/05 02:27:18;;;;;;;;;;;7.30;99.90;;;;;;5095737;28;20382;-44
2022/04/05 02:29:43;;;;;;;;;;;7.40;99.90;;;;;;5096369;28;19967;-42
2022/04/05 02:32:09;;;;;;;;;;;7.40;99.90;;;;;;5095725;28;19955;-43
2022/04/05 02:34:34;;;;;;;;;;;7.30;99.90;;;;;;5096306;28;19920;-43
2022/04/05 02:37:00;;;;;;;;;;;7.30;99.90;;;;;;5096428;28;19914;-43
2022/04/05 02:39:25;;;;;;;;;;;7.30;99.90;;;;;;5095575;28;19908;-44
2022/04/05 02:41:51;;;;;;;;;;;7.30;99.90;;;;;;5096415;28;19920;-43
2022/04/05 02:44:16;;;;;;;;;;;7.40;99.90;;;;;;5096244;28;19908;-44
2022/04/05 02:46:41;;;;;;;;;;;7.40;99.90;;;;;;5095527;28;19916;-43
2022/04/05 02:49:08;;;;;;;;;;;7.40;99.90;;;;;;5095386;28;19920;-43
2022/04/05 02:51:34;;;;;;;;;;;7.40;99.90;;;;;;5096255;28;19908;-43
2022/04/05 02:54:00;;;;;;;;;;;7.40;99.90;;;;;;5095524;28;19931;-43
2022/04/05 02:56:25;;;;;;;;;;;7.40;99.90;;;;;;5095917;28;19908;-45
2022/04/05 02:58:51;;;;;;;;;;;7.40;99.90;;;;;;5095662;28;19916;-44
2022/04/05 03:01:16;;;;;;;;;;;7.40;99.90;;;;;;5095180;28;20367;-43
2022/04/05 03:03:42;;;;;;;;;;;7.40;99.90;;;;;;5095924;28;19944;-43
2022/04/05 03:06:07;;;;;;;;;;;7.40;99.90;;;;;;5095916;28;19908;-43
2022/04/05 03:08:33;;;;;;;;;;;7.40;99.90;;;;;;5094786;28;19970;-43
2022/04/05 03:10:58;;;;;;;;;;;7.40;99.90;;;;;;5095559;28;19916;-43
2022/04/05 03:13:23;;;;;;;;;;;7.40;99.90;;;;;;5095676;28;19908;-45
2022/04/05 03:15:49;;;;;;;;;;;7.40;99.90;;;;;;5094853;28;19930;-43
2022/04/05 03:18:14;;;;;;;;;;;7.40;99.90;;;;;;5095623;28;19908;-43
2022/04/05 03:20:40;;;;;;;;;;;7.40;99.90;;;;;;5095695;28;19919;-43
2022/04/05 03:23:07;;;;;;;;;;;7.40;99.90;;;;;;5093315;28;19908;-43
2022/04/05 03:25:32;;;;;;;;;;;7.40;99.90;;;;;;5095594;28;19916;-43
2022/04/05 03:28:02;;;;;;;;;;;7.40;99.90;;;;;;5095381;28;19920;-45
2022/04/05 03:30:27;;;;;;;;;;;7.40;99.90;;;;;;5094081;28;20383;-43
2022/04/05 03:32:53;;;;;;;;;;;7.40;99.90;;;;;;5094711;28;19908;-44
2022/04/05 03:35:19;;;;;;;;;;;7.40;99.90;;;;;;5093342;28;20003;-43
2022/04/05 03:37:44;;;;;;;;;;;7.40;99.90;;;;;;5094323;28;19908;-43
2022/04/05 03:40:12;;;;;;;;;;;7.40;99.90;;;;;;5094284;28;19908;-43
2022/04/05 03:42:37;;;;;;;;;;;7.40;99.90;;;;;;5093473;28;20009;-43
2022/04/05 03:45:03;;;;;;;;;;;7.40;99.90;;;;;;5094220;28;20370;-43
2022/04/05 03:47:30;;;;;;;;;;;7.40;99.90;;;;;;5094113;28;19912;-43
2022/04/05 03:49:56;;;;;;;;;;;7.40;99.90;;;;;;5093148;28;19960;-44
2022/04/05 03:52:21;;;;;;;;;;;7.40;99.90;;;;;;5094079;28;19948;-43
2022/04/05 03:54:47;;;;;;;;;;;7.50;99.90;;;;;;5094005;28;19908;-43
2022/04/05 03:57:12;;;;;;;;;;;7.40;99.90;;;;;;5093097;28;19909;-43
2022/04/05 03:59:38;;;;;;;;;;;7.50;99.90;;;;;;5093476;28;19913;-45
2022/04/05 04:02:03;;;;;;;;;;;7.40;99.90;;;;;;5093934;28;20391;-43
2022/04/05 04:04:29;;;;;;;;;;;7.50;99.90;;;;;;5093006;28;20329;-43
2022/04/05 04:06:54;;;;;;;;;;;7.40;99.90;;;;;;5093571;28;19912;-44
2022/04/05 04:09:20;;;;;;;;;;;7.40;99.90;;;;;;5093625;28;20390;-44
2022/04/05 04:11:45;;;;;;;;;;;7.40;99.90;;;;;;5092951;28;19944;-45
2022/04/05 04:14:11;;;;;;;;;;;7.40;99.90;;;;;;5093505;28;19912;-44
2022/04/05 04:16:36;;;;;;;;;;;7.40;99.90;;;;;;5093688;28;20370;-45
2022/04/05 04:19:02;;;;;;;;;;;7.40;99.90;;;;;;5092833;28;19908;-43
2022/04/05 04:21:28;;;;;;;;;;;7.40;99.90;;;;;;5093570;28;19908;-44
2022/04/05 04:23:54;;;;;;;;;;;7.40;99.90;;;;;;5093487;28;20382;-44
2022/04/05 04:26:19;;;;;;;;;;;7.40;99.90;;;;;;5092644;28;19912;-44
2022/04/05 04:28:46;;;;;;;;;;;7.40;99.90;;;;;;5092909;28;20027;-43
2022/04/05 04:31:11;;;;;;;;;;;7.40;99.90;;;;;;5093403;28;19934;-43
2022/04/05 04:33:37;;;;;;;;;;;7.40;99.90;;;;;;5092244;28;19908;-44
2022/04/05 04:36:02;;;;;;;;;;;7.40;99.90;;;;;;5092904;28;19943;-44
2022/04/05 04:38:28;;;;;;;;;;;7.40;99.90;;;;;;5093182;28;19908;-44
2022/04/05 04:40:53;;;;;;;;;;;7.40;99.90;;;;;;5092341;28;20256;-43
2022/04/05 04:43:19;;;;;;;;;;;7.40;99.90;;;;;;5093289;28;20018;-43
2022/04/05 04:45:45;;;;;;;;;;;7.40;99.90;;;;;;5092319;28;19910;-44
2022/04/05 04:48:11;;;;;;;;;;;7.40;99.90;;;;;;5093056;28;19919;-43
2022/04/05 04:50:36;;;;;;;;;;;7.40;99.90;;;;;;5092889;28;19982;-44
2022/04/05 04:53:02;;;;;;;;;;;7.40;99.90;;;;;;5092076;28;19908;-44
2022/04/05 04:55:28;;;;;;;;;;;7.40;99.90;;;;;;5092757;28;19915;-46
2022/04/05 04:57:53;;;;;;;;;;;7.40;99.90;;;;;;5092480;28;19908;-44
2022/04/05 05:00:19;;;;;;;;;;;7.40;99.90;;;;;;5091887;28;19912;-43
2022/04/05 05:02:45;;;;;;;;;;;7.40;99.90;;;;;;5092731;28;19912;-44
2022/04/05 05:05:12;;;;;;;;;;;7.40;99.90;;;;;;5092643;28;20002;-43
2022/04/05 05:07:38;;;;;;;;;;;7.50;99.90;;;;;;5091671;28;19912;-44
2022/04/05 05:10:05;;;;;;;;;;;7.50;99.90;;;;;;5092443;28;20003;-44
2022/04/05 05:12:30;;;;;;;;;;;7.40;99.90;;;;;;5092580;28;19908;-44
2022/04/05 05:14:56;;;;;;;;;;;7.50;99.90;;;;;;5091770;28;19919;-44
2022/04/05 05:17:21;;;;;;;;;;;7.40;99.90;;;;;;5092440;28;19908;-43
2022/04/05 05:19:47;;;;;;;;;;;7.40;99.90;;;;;;5092454;28;20007;-43
2022/04/05 05:22:12;;;;;;;;;;;7.40;99.90;;;;;;5091587;28;19962;-43
2022/04/05 05:24:39;;;;;;;;;;;7.40;99.90;;;;;;5092205;28;19919;-44
2022/04/05 05:27:04;;;;;;;;;;;7.40;99.90;;;;;;5092275;28;19912;-43
2022/04/05 05:29:29;;;;;;;;;;;7.40;99.90;;;;;;5091107;28;19973;-43
2022/04/05 05:31:55;;;;;;;;;;;7.40;99.90;;;;;;5092508;28;19908;-43
2022/04/05 05:34:23;;;;;;;;;;;7.40;99.90;;;;;;5091782;28;19941;-43
2022/04/05 05:36:48;;;;;;;;;;;7.40;99.90;;;;;;5091263;28;19932;-43
2022/04/05 05:39:14;;;;;;;;;;;7.40;99.90;;;;;;5092032;28;19923;-43
2022/04/05 05:41:39;;;;;;;;;;;7.50;99.90;;;;;;5091276;28;19912;-43
2022/04/05 05:44:04;;;;;;;;;;;7.50;99.90;;;;;;5089554;28;19912;-43
2022/04/05 05:46:30;;;;;;;;;;;7.50;99.90;;;;;;5091038;28;19999;-43
2022/04/05 05:48:55;;;;;;;;;;;7.50;99.90;;;;;;5091142;28;19913;-44
2022/04/05 05:51:21;;;;;;;;;;;7.50;99.90;;;;;;5091153;28;20006;-43
2022/04/05 05:53:46;;;;;;;;;;;7.50;99.90;;;;;;5091122;28;19990;-47
2022/04/05 05:56:12;;;;;;;;;;;7.50;99.90;;;;;;5089836;28;20014;-43
2022/04/05 05:58:37;;;;;;;;;;;7.50;99.90;;;;;;5091536;28;20035;-45
2022/04/05 06:01:02;;;;;;;;;;;7.50;99.90;;;;;;5090972;28;19996;-43
2022/04/05 06:03:28;;;;;;;;;;;7.50;99.90;;;;;;5090045;28;19938;-44
2022/04/05 06:05:54;;;;;;;;;;;7.50;99.90;;;;;;5104368;28;19922;-44
2022/04/05 06:08:19;;;;;;;;;;;7.50;99.90;;;;;;5111134;28;20085;-44
2022/04/05 06:10:44;;;;;;;;;;;7.50;99.90;;;;;;5090818;28;19978;-43
2022/04/05 06:13:11;;;;;;;;;;;7.60;99.90;;;;;;5090828;28;19978;-43
2022/04/05 06:15:37;;;;;;;;;;;7.60;99.90;;;;;;5091113;28;19912;-43
2022/04/05 06:18:03;;;;;;;;;;;7.60;99.90;;;;;;5089466;28;19981;-44
2022/04/05 06:20:28;;;;;;;;;;;7.60;99.90;;;;;;5090803;28;21307;-43
2022/04/05 06:22:57;;;;;;;;;;;7.70;99.90;;;;;;5091394;28;19908;-43
2022/04/05 06:25:27;;;;;;;;;;;7.70;99.90;;;;;;5090565;28;19914;-43
2022/04/05 06:27:52;;;;;;;;;;;7.70;99.90;;;;;;5091343;28;19944;-44
2022/04/05 06:30:18;;;;;;;;;;;7.60;99.90;;;;;;5090868;28;19974;-44
2022/04/05 06:32:44;;;;;;;;;;;7.70;99.90;;;;;;5090532;28;19908;-45
2022/04/05 06:35:10;;;;;;;;;;;7.70;99.90;;;;;;5090465;28;20291;-44
2022/04/05 06:37:36;;;;;;;;;;;7.70;99.90;;;;;;5090290;28;20390;-44
2022/04/05 06:40:05;;;;;;;;;;;7.80;99.90;;;;;;5089276;28;19918;-44
2022/04/05 06:42:31;;;;;;;;;;;7.70;99.90;;;;;;5090347;28;19915;-43
2022/04/05 06:44:58;;;;;;;;;;;7.80;99.90;;;;;;5089333;28;21334;-44
2022/04/05 06:47:23;;;;;;;;;;;7.80;99.90;;;;;;5089649;28;19908;-43
2022/04/05 06:49:49;;;;;;;;;;;7.80;99.90;;;;;;5091011;28;20047;-45
2022/04/05 06:52:14;;;;;;;;;;;7.80;99.90;;;;;;5090100;28;20297;-45
2022/04/05 06:54:40;;;;;;;;;;;7.90;99.90;;;;;;5090942;28;19908;-43
2022/04/05 06:57:06;;;;;;;;;;;7.90;99.90;;;;;;5091521;28;20003;-44
2022/04/05 06:59:31;;;;;;;;;;;8.00;99.90;;;;;;5094287;28;20362;-43
2022/04/05 07:01:57;;;;;;;;;;;8.00;99.90;;;;;;5094467;28;19976;-45
2022/04/05 07:04:22;;;;;;;;;;;8.10;99.90;;;;;;5094693;28;19908;-44
2022/04/05 07:06:47;;;;;;;;;;;8.10;99.90;;;;;;5093870;28;20352;-44
2022/04/05 07:09:13;;;;;;;;;;;8.10;99.90;;;;;;5094180;28;20444;-43
2022/04/05 07:11:38;;;;;;;;;;;8.10;99.90;;;;;;5094575;28;19991;-44
2022/04/05 07:14:04;;;;;;;;;;;8.10;99.90;;;;;;5093466;28;19961;-43
2022/04/05 07:16:29;;;;;;;;;;;8.20;99.90;;;;;;5094650;28;19923;-45
2022/04/05 07:18:55;;;;;;;;;;;8.20;99.90;;;;;;5094484;28;20370;-44
2022/04/05 07:21:20;;;;;;;;;;;8.20;99.90;;;;;;5093412;28;19961;-44
2022/04/05 07:23:47;;;;;;;;;;;8.20;99.90;;;;;;5093935;28;19916;-43
2022/04/05 07:26:12;;;;;;;;;;;8.20;99.90;;;;;;5093812;28;20282;-44
2022/04/05 07:28:38;;;;;;;;;;;8.20;99.90;;;;;;5093411;28;19908;-44
2022/04/05 07:31:03;;;;;;;;;;;8.20;99.90;;;;;;5093896;28;19908;-43
2022/04/05 07:33:29;;;;;;;;;;;8.20;99.90;;;;;;5094152;28;19985;-43
2022/04/05 07:35:55;;;;;;;;;;;8.20;99.90;;;;;;5093830;28;19927;-43
2022/04/05 07:38:20;;;;;;;;;;;8.30;99.90;;;;;;5093543;28;19913;-44
2022/04/05 07:40:49;;;;;;;;;;;8.20;99.90;;;;;;5094031;28;19915;-44
2022/04/05 07:43:15;;;;;;;;;;;8.30;99.90;;;;;;5092671;28;20356;-43
2022/04/05 07:45:41;;;;;;;;;;;8.30;99.90;;;;;;5093744;28;19915;-43
2022/04/05 07:48:06;;;;;;;;;;;8.40;99.90;;;;;;5093597;28;19991;-44
2022/04/05 07:50:32;;;;;;;;;;;8.40;99.90;;;;;;5093273;28;19917;-43
2022/04/05 07:52:57;;;;;;;;;;;8.50;99.90;;;;;;5093520;28;20175;-44
2022/04/05 07:55:23;;;;;;;;;;;8.60;99.90;;;;;;5093902;28;19909;-44
2022/04/05 07:57:49;;;;;;;;;;;8.60;99.90;;;;;;5093348;28;20378;-45
2022/04/05 08:00:15;;;;;;;;;;;8.60;99.90;;;;;;5093844;28;19962;-45
2022/04/05 08:02:40;;;;;;;;;;;8.60;99.90;;;;;;5093348;28;19912;-44
2022/04/05 08:05:06;;;;;;;;;;;8.60;99.90;;;;;;5093734;28;20363;-44
2022/04/05 08:07:31;;;;;;;;;;;8.60;99.90;;;;;;5094046;28;19912;-45
2022/04/05 08:09:57;;;;;;;;;;;8.50;99.90;;;;;;5092186;28;19916;-44
2022/04/05 08:12:23;;;;;;;;;;;8.50;99.90;;;;;;5093995;28;19998;-44
2022/04/05 08:14:48;;;;;;;;;;;8.50;99.90;;;;;;5094013;28;20383;-44
2022/04/05 08:17:14;;;;;;;;;;;8.50;99.90;;;;;;5092627;28;20286;-45
2022/04/05 08:19:39;;;;;;;;;;;8.50;99.90;;;;;;5093630;28;19908;-43
2022/04/05 08:22:05;;;;;;;;;;;8.50;99.90;;;;;;5093104;28;19914;-43
2022/04/05 08:24:30;;;;;;;;;;;8.50;99.90;;;;;;5093090;28;19923;-44
2022/04/05 08:26:56;;;;;;;;;;;8.50;99.90;;;;;;5093235;28;19965;-44
2022/04/05 08:29:21;;;;;;;;;;;8.70;99.90;;;;;;5093496;28;20371;-43
2022/04/05 08:31:47;;;;;;;;;;;8.80;99.90;;;;;;5092968;28;19908;-44
2022/04/05 08:34:12;;;;;;;;;;;8.90;99.90;;;;;;5092884;28;20380;-44
2022/04/05 08:36:38;;;;;;;;;;;9.00;99.90;;;;;;5087651;28;19928;-43
2022/04/05 08:39:03;;;;;;;;;;;9.00;99.90;;;;;;5091703;28;20432;-43
2022/04/05 08:41:29;;;;;;;;;;;9.10;99.90;;;;;;5092552;28;19915;-44
2022/04/05 08:43:55;;;;;;;;;;;9.20;99.90;;;;;;5092299;28;19915;-43
2022/04/05 08:46:21;;;;;;;;;;;9.10;99.90;;;;;;5091376;28;19908;-43
2022/04/05 08:48:48;;;;;;;;;;;9.10;99.90;;;;;;5092180;28;19916;-43
2022/04/05 08:51:13;;;;;;;;;;;9.20;99.90;;;;;;5092046;28;19908;-43
2022/04/05 08:53:39;;;;;;;;;;;9.20;99.90;;;;;;5092005;28;19920;-46
2022/04/05 08:56:05;;;;;;;;;;;9.20;99.90;;;;;;5091761;28;19908;-43
2022/04/05 08:58:30;;;;;;;;;;;9.20;99.90;;;;;;5092073;28;20378;-44
2022/04/05 09:00:56;;;;;;;;;;;9.20;99.90;;;;;;5090991;28;19934;-45
2022/04/05 09:03:21;;;;;;;;;;;9.10;99.90;;;;;;5091944;28;20323;-44
2022/04/05 09:05:47;;;;;;;;;;;9.20;99.90;;;;;;5092347;28;19915;-45
2022/04/05 09:08:13;;;;;;;;;;;9.20;99.90;;;;;;5091014;28;19915;-43
2022/04/05 09:10:39;;;;;;;;;;;9.20;99.90;;;;;;5091350;28;19920;-43
2022/04/05 09:13:08;;;;;;;;;;;9.20;99.90;;;;;;5090551;28;20457;-44
2022/04/05 09:15:35;;;;;;;;;;;9.20;99.90;;;;;;5091915;28;19918;-44
2022/04/05 09:18:01;;;;;;;;;;;9.20;99.90;;;;;;5087578;28;19913;-44
2022/04/05 09:20:27;;;;;;;;;;;9.30;99.90;;;;;;5090903;28;19920;-46
2022/04/05 09:22:54;;;;;;;;;;;9.30;99.90;;;;;;5092431;28;19912;-45
2022/04/05 09:25:20;;;;;;;;;;;9.30;99.90;;;;;;5091448;28;19912;-45
2022/04/05 09:27:48;;;;;;;;;;;9.30;99.90;;;;;;5091669;28;20003;-43
2022/04/05 09:30:15;;;;;;;;;;;9.40;99.90;;;;;;5091726;28;19960;-44
2022/04/05 09:32:42;;;;;;;;;;;9.50;99.90;;;;;;5091055;28;19959;-43
2022/04/05 09:35:08;;;;;;;;;;;9.60;99.90;;;;;;5088737;28;19931;-43
2022/04/05 09:37:38;;;;;;;;;;;9.70;99.90;;;;;;5090755;28;20019;-43
2022/04/05 09:40:21;;;;;;;;;;;9.70;99.90;;;;;;5091314;28;19916;-43
2022/04/05 09:42:57;;;;;;;;;;;9.80;99.90;;;;;;5091150;28;19915;-43
2022/04/05 09:45:45;;;;;;;;;;;9.90;99.90;;;;;;5091130;28;19916;-44
2022/04/05 09:48:11;;;;;;;;;;;9.90;99.90;;;;;;5082548;28;19915;-43
2022/04/05 09:50:58;;;;;;;;;;;9.90;99.90;;;;;;5091601;28;19917;-44
2022/04/05 09:53:24;;;;;;;;;;;10.00;99.90;;;;;;5080414;28;19916;-43
2022/04/05 09:56:00;;;;;;;;;;;10.00;99.90;;;;;;5090940;28;19935;-43
2022/04/05 09:58:26;;;;;;;;;;;10.00;99.90;;;;;;5092228;28;19912;-43
2022/04/05 10:01:03;;;;;;;;;;;9.90;99.90;;;;;;5092257;28;19922;-43
2022/04/05 10:03:28;;;;;;;;;;;10.00;99.90;;;;;;5091517;28;19912;-44
2022/04/05 10:05:53;;;;;;;;;;;10.10;99.90;;;;;;5092135;28;19916;-43
2022/04/05 10:08:19;;;;;;;;;;;10.10;99.90;;;;;;5091748;28;19916;-43
2022/04/05 10:10:45;;;;;;;;;;;10.10;99.90;;;;;;5091237;28;20006;-47
2022/04/05 10:13:11;;;;;;;;;;;10.20;99.90;;;;;;5091806;28;19909;-43
2022/04/05 10:15:36;;;;;;;;;;;10.30;99.90;;;;;;5091690;28;19939;-44
2022/04/05 10:18:02;;;;;;;;;;;10.30;99.90;;;;;;5090934;28;20006;-44
2022/04/05 10:20:28;;;;;;;;;;;10.30;99.90;;;;;;5092275;28;19916;-43
2022/04/05 10:22:56;;;;;;;;;;;10.30;99.90;;;;;;5091521;28;19935;-43
2022/04/05 10:25:22;;;;;;;;;;;10.30;99.90;;;;;;5091166;28;19915;-45
2022/04/05 10:27:47;;;;;;;;;;;10.20;99.90;;;;;;5091934;28;19908;-43
2022/04/05 10:30:24;;;;;;;;;;;10.10;99.90;;;;;;5091020;28;19961;-44
2022/04/05 10:32:58;;;;;;;;;;;10.00;99.90;;;;;;5094082;28;19908;-43
2022/04/05 10:35:25;;;;;;;;;;;10.00;99.90;;;;;;5095625;28;19924;-43
2022/04/05 10:37:53;;;;;;;;;;;10.00;99.90;;;;;;5094549;28;19912;-44
2022/04/05 10:40:20;;;;;;;;;;;10.00;99.90;;;;;;5094826;28;19912;-46
2022/04/05 10:42:51;;;;;;;;;;;10.00;99.90;;;;;;5095188;28;20010;-44
2022/04/05 10:45:18;;;;;;;;;;;10.10;99.90;;;;;;5094298;28;19987;-43
2022/04/05 10:47:59;;;;;;;;;;;10.20;99.90;;;;;;5095381;28;20302;-44
2022/04/05 10:50:25;;;;;;;;;;;10.20;99.90;;;;;;5095409;28;19928;-43
2022/04/05 10:53:09;;;;;;;;;;;10.30;99.90;;;;;;5094760;28;19919;-43
2022/04/05 10:55:55;;;;;;;;;;;10.20;99.90;;;;;;5094729;28;19977;-44
2022/04/05 10:58:20;;;;;;;;;;;10.30;99.90;;;;;;5092061;28;20021;-44
2022/04/05 11:00:47;;;;;;;;;;;10.40;99.90;;;;;;5097116;28;20367;-43
2022/04/05 11:03:12;;;;;;;;;;;10.50;99.90;;;;;;5094068;28;19912;-43
2022/04/05 11:05:40;;;;;;;;;;;10.50;99.90;;;;;;5093465;28;19908;-44
2022/04/05 11:08:13;;;;;;;;;;;10.50;99.90;;;;;;5094407;28;19989;-44
2022/04/05 11:10:39;;;;;;;;;;;10.60;99.90;;;;;;5094479;28;19916;-44
2022/04/05 11:13:06;;;;;;;;;;;10.60;99.90;;;;;;5093480;28;19908;-45
2022/04/05 11:15:57;;;;;;;;;;;10.70;99.90;;;;;;5094429;28;19931;-44
2022/04/05 11:18:24;;;;;;;;;;;10.70;99.90;;;;;;5090904;28;20380;-43
2022/04/05 11:20:51;;;;;;;;;;;10.80;99.90;;;;;;5094383;28;19958;-43
2022/04/05 11:23:18;;;;;;;;;;;10.80;99.90;;;;;;5093873;28;19923;-44
2022/04/05 11:25:44;;;;;;;;;;;10.90;99.90;;;;;;5095116;28;19908;-43
2022/04/05 11:28:18;;;;;;;;;;;11.10;99.90;;;;;;5093776;28;19989;-43
2022/04/05 11:30:46;;;;;;;;;;;11.30;99.90;;;;;;5094635;28;19951;-45
2022/04/05 11:33:13;;;;;;;;;;;11.40;99.90;;;;;;5094232;28;20386;-43
2022/04/05 11:35:39;;;;;;;;;;;11.40;99.90;;;;;;5093724;28;19966;-43
2022/04/05 11:38:06;;;;;;;;;;;11.40;99.90;;;;;;5094370;28;20350;-43
2022/04/05 11:40:31;;;;;;;;;;;11.50;99.90;;;;;;5094592;28;19927;-44
2022/04/05 11:43:00;;;;;;;;;;;11.60;99.90;;;;;;5093597;28;20256;-43
2022/04/05 11:45:26;;;;;;;;;;;11.50;99.90;;;;;;5093507;28;19919;-43
2022/04/05 11:47:52;;;;;;;;;;;11.50;99.90;;;;;;5093875;28;19912;-43
2022/04/05 11:50:18;;;;;;;;;;;11.60;99.90;;;;;;5094082;28;19916;-43
2022/04/05 11:52:44;;;;;;;;;;;11.80;99.90;;;;;;5094343;28;19966;-43
2022/04/05 11:58:03;;;;;;;;;;;12.10;99.90;;;;;;5094442;28;19919;-44
2022/04/05 12:00:28;;;;;;;;;;;12.20;99.90;;;;;;5094388;28;19908;-43
2022/04/05 12:03:03;;;;;;;;;;;12.20;99.90;;;;;;5093503;28;20003;-43
2022/04/05 12:05:44;;;;;;;;;;;12.20;99.90;;;;;;5094241;28;19914;-43
2022/04/05 12:08:10;;;;;;;;;;;12.20;99.90;;;;;;5093814;28;19908;-44
2022/04/05 12:10:36;;;;;;;;;;;12.10;99.90;;;;;;5093387;28;19969;-43
2022/04/05 12:13:02;;;;;;;;;;;12.20;99.90;;;;;;5093812;28;19912;-43
2022/04/05 12:15:27;;;;;;;;;;;12.20;99.90;;;;;;5093620;28;20396;-43
2022/04/05 12:18:11;;;;;;;;;;;12.00;99.90;;;;;;5093306;28;19908;-43
2022/04/05 12:20:37;;;;;;;;;;;12.00;99.90;;;;;;5094010;28;19961;-43
2022/04/05 12:23:02;;;;;;;;;;;12.00;99.90;;;;;;5092421;28;19912;-42
2022/04/05 12:25:28;;;;;;;;;;;12.00;99.90;;;;;;5093845;28;19941;-45
2022/04/05 12:27:55;;;;;;;;;;;12.00;99.90;;;;;;5093825;28;19919;-43
2022/04/05 12:30:27;;;;;;;;;;;11.90;99.90;;;;;;5092984;28;19927;-43
2022/04/05 12:32:52;;;;;;;;;;;11.90;99.90;;;;;;5093508;28;19912;-43
2022/04/05 12:35:19;;;;;;;;;;;11.90;99.90;;;;;;5093235;28;19927;-44
2022/04/05 12:37:46;;;;;;;;;;;11.90;99.90;;;;;;5093755;28;19916;-44
2022/04/05 12:40:21;;;;;;;;;;;11.80;99.90;;;;;;5093719;28;19927;-44
2022/04/05 12:42:46;;;;;;;;;;;11.80;99.90;;;;;;5094052;28;19916;-44
2022/04/05 12:45:13;;;;;;;;;;;11.70;99.90;;;;;;5092573;28;19919;-45
2022/04/05 12:47:44;;;;;;;;;;;11.70;99.90;;;;;;5093395;28;20408;-43
2022/04/05 12:50:09;;;;;;;;;;;11.80;99.90;;;;;;5093022;28;19972;-44
2022/04/05 12:52:35;;;;;;;;;;;11.80;99.90;;;;;;5092220;28;19912;-43
2022/04/05 12:55:05;;;;;;;;;;;11.90;99.90;;;;;;5092545;28;19915;-43
2022/04/05 12:57:31;;;;;;;;;;;11.90;99.90;;;;;;5093399;28;19943;-43
2022/04/05 13:00:06;;;;;;;;;;;12.00;99.90;;;;;;5092060;28;20359;-43
2022/04/05 13:02:35;;;;;;;;;;;11.90;99.90;;;;;;5092003;28;19912;-45
2022/04/05 13:07:55;;;;;;;;;;;11.60;99.90;;;;;;5093337;28;19931;-44
2022/04/05 13:10:30;;;;;;;;;;;11.40;99.90;;;;;;5092699;28;20438;-43
2022/04/05 13:12:55;;;;;;;;;;;11.30;99.90;;;;;;5091426;28;19989;-43
2022/04/05 13:15:21;;;;;;;;;;;11.20;99.90;;;;;;5091798;28;20371;-44
2022/04/05 13:17:47;;;;;;;;;;;11.30;99.90;;;;;;5091797;28;19908;-43
2022/04/05 13:20:12;;;;;;;;;;;11.20;99.90;;;;;;5091116;28;19912;-44
2022/04/05 13:22:38;;;;;;;;;;;11.10;99.90;;;;;;5092676;28;19915;-43
2022/04/05 13:25:04;;;;;;;;;;;11.10;99.90;;;;;;5091752;28;19915;-43
2022/04/05 13:27:29;;;;;;;;;;;11.00;99.90;;;;;;5091791;28;19908;-44
2022/04/05 13:29:55;;;;;;;;;;;11.00;99.90;;;;;;5092443;28;20011;-44
2022/04/05 13:32:24;;;;;;;;;;;10.90;99.90;;;;;;5092413;28;19947;-44
2022/04/05 13:34:50;;;;;;;;;;;10.80;99.90;;;;;;5091111;28;19920;-43
2022/04/05 13:37:19;;;;;;;;;;;10.80;99.90;;;;;;5092072;28;20332;-44
2022/04/05 13:39:54;;;;;;;;;;;10.80;99.90;;;;;;5092535;28;19908;-43
2022/04/05 13:42:20;;;;;;;;;;;10.70;99.90;;;;;;5091244;28;19908;-43
2022/04/05 13:44:45;;;;;;;;;;;10.80;99.90;;;;;;5092621;28;20460;-43
2022/04/05 13:47:11;;;;;;;;;;;10.80;99.90;;;;;;5091544;28;19971;-42
2022/04/05 13:49:37;;;;;;;;;;;10.80;99.90;;;;;;5092556;28;20286;-43
2022/04/05 13:52:03;;;;;;;;;;;10.80;99.90;;;;;;5091944;28;20060;-43
2022/04/05 13:54:29;;;;;;;;;;;10.80;99.90;;;;;;5091410;28;19915;-43
2022/04/05 13:56:54;;;;;;;;;;;10.70;99.90;;;;;;5092263;28;19908;-42
2022/04/05 13:59:20;;;;;;;;;;;10.70;99.90;;;;;;5091705;28;19908;-43
2022/04/05 14:01:45;;;;;;;;;;;10.70;99.90;;;;;;5091439;28;20394;-43
2022/04/05 14:04:10;;;;;;;;;;;10.70;99.90;;;;;;5091054;28;19908;-44
2022/04/05 14:06:37;;;;;;;;;;;10.60;99.90;;;;;;5088009;28;19927;-43
2022/04/05 14:09:03;;;;;;;;;;;10.70;99.90;;;;;;5088913;28;20386;-45
2022/04/05 14:11:29;;;;;;;;;;;10.60;99.90;;;;;;5090582;28;19909;-44
2022/04/05 14:13:55;;;;;;;;;;;10.60;99.90;;;;;;5090852;28;19912;-46
2022/04/05 14:16:20;;;;;;;;;;;10.60;99.90;;;;;;5089798;28;19908;-44
2022/04/05 14:18:46;;;;;;;;;;;10.60;99.90;;;;;;5091059;28;19909;-43
2022/04/05 14:21:12;;;;;;;;;;;10.60;99.90;;;;;;5091084;28;19908;-45
2022/04/05 14:23:41;;;;;;;;;;;10.60;99.90;;;;;;5089919;28;19931;-43
2022/04/05 14:26:07;;;;;;;;;;;10.60;99.90;;;;;;5090678;28;20011;-43
2022/04/05 14:28:33;;;;;;;;;;;10.60;99.90;;;;;;5090909;28;20023;-43